Corinthiakos — A8UL2 — position and weather

sailwx.info

Track history (hours):
 
Tides and Currents Weather Stations Pressure Air Temp Water Temp Dewpoint Dewpoint Depression Visibility Wind Speed Wind Dir Waves Ship Positions

Corinthiakos

Last reported at 2017-Apr-17 01:02 UTC. Time now 2017-Apr-28 02:35 UTC.
Position N 01°21' E 103°18'.
Warning: this ship's position is 11 days out of date.

Length 262 m; draft 12.5 m.

Type: Cargo ship. MMSI: 636014516.

Date/timePositionNaut miles runAvg speedWind from/ knotsBaromVisibWave heightAir tempDewpointWater temp
2017-Apr-17 01:02N 01°21' E 103°18'318.6
2017-Apr-17 00:51N 01°18' E 103°21'618.3
2017-Apr-17 00:30N 01°14' E 103°25'918.3
2017-Apr-17 00:00N 01°12' E 103°34'816.4
2017-Apr-16 23:31N 01°09' E 103°42'611.9
2017-Apr-16 23:00N 01°11' E 103°48'510.4
2017-Apr-16 22:30N 01°13' E 103°53'3 6.5
2017-Apr-16 22:00N 01°15' E 103°51'0 0.8
2017-Apr-16 21:25N 01°16' E 103°51'0 0.0
2017-Apr-16 20:55N 01°16' E 103°51'0 0.0
2017-Apr-16 20:30N 01°16' E 103°51'0 0.0
2017-Apr-16 19:58N 01°16' E 103°51'0 0.0
2017-Apr-16 19:25N 01°16' E 103°51'0 0.0
2017-Apr-16 18:55N 01°16' E 103°51'0 0.0
2017-Apr-16 18:28N 01°16' E 103°51'0 0.0
2017-Apr-16 18:01N 01°16' E 103°51'0 0.0
2017-Apr-16 17:25N 01°16' E 103°51'0 0.0
2017-Apr-16 17:01N 01°16' E 103°51'0 0.0
2017-Apr-16 16:31N 01°16' E 103°51'0 0.0
2017-Apr-16 15:57N 01°16' E 103°51'0 0.0
2017-Apr-16 15:15N 01°16' E 103°51'0 0.0
2017-Apr-16 14:57N 01°16' E 103°51'0 0.0
2017-Apr-16 13:57N 01°16' E 103°51'0 0.0
2017-Apr-16 13:30N 01°16' E 103°51'0 0.0
2017-Apr-16 12:57N 01°16' E 103°51'0 0.0
2017-Apr-16 12:30N 01°16' E 103°51'0 0.0
2017-Apr-16 11:57N 01°16' E 103°51'0 0.0
2017-Apr-16 11:30N 01°16' E 103°51'0 0.1
2017-Apr-16 11:00N 01°16' E 103°51'1 2.9
2017-Apr-16 10:30N 01°15' E 103°52'3 5.6
2017-Apr-16 10:00N 01°14' E 103°54'713.1
2017-Apr-16 09:30N 01°16' E 104°01'915.1
2017-Apr-16 08:56N 01°17' E 104°09'  
2017-Apr-11 23:23N 22°18' E 114°05'1 3.0
2017-Apr-11 23:01N 22°19' E 114°06'2 1.9
2017-Apr-11 22:06N 22°20' E 114°08'0 0.0
2017-Apr-11 14:07N 22°20' E 114°08'31313.2
2017-Apr-10 14:23N 22°29' E 119°46'1416.1
2017-Apr-10 13:30N 22°31' E 120°01'816.6
2017-Apr-10 13:00N 22°32' E 120°10'714.6
2017-Apr-10 12:30N 22°33' E 120°18'1 2.8
2017-Apr-10 12:00N 22°34' E 120°19'1 1.4
2017-Apr-10 11:26N 22°35' E 120°18'0 0.0
2017-Apr-10 10:56N 22°35' E 120°18'0 0.0
2017-Apr-10 10:28N 22°35' E 120°18'0 0.0
2017-Apr-10 09:59N 22°35' E 120°18'0 0.0
2017-Apr-10 09:28N 22°35' E 120°18'0 0.0
2017-Apr-10 08:55N 22°35' E 120°18'0 0.0
2017-Apr-10 08:27N 22°35' E 120°18'0 0.0
2017-Apr-10 07:59N 22°35' E 120°18'0 0.0
2017-Apr-10 07:30N 22°35' E 120°18'0 0.1
2017-Apr-10 07:01N 22°35' E 120°18'0 0.1
2017-Apr-10 06:29N 22°35' E 120°18'0 0.0
2017-Apr-10 05:59N 22°35' E 120°18'0 0.0
2017-Apr-10 05:28N 22°35' E 120°18'0 0.0
2017-Apr-10 04:58N 22°35' E 120°18'0 0.0
2017-Apr-10 04:28N 22°35' E 120°18'0 0.0
2017-Apr-10 03:58N 22°35' E 120°18'0 0.0
2017-Apr-10 03:30N 22°35' E 120°18'0 0.0
2017-Apr-10 02:59N 22°35' E 120°18'0 0.0
2017-Apr-10 02:22N 22°35' E 120°18'0 0.0
2017-Apr-10 02:00N 22°35' E 120°18'0 0.0
2017-Apr-10 01:31N 22°35' E 120°18'0 0.0
2017-Apr-10 00:55N 22°35' E 120°18'0 0.0
2017-Apr-10 00:26N 22°35' E 120°18'0 0.0
2017-Apr-09 22:06N 22°35' E 120°18'0 0.0
2017-Apr-09 21:56N 22°35' E 120°18'0 0.0
2017-Apr-09 19:51N 22°35' E 120°18'0 0.0
2017-Apr-09 18:47N 22°35' E 120°18'0 0.1
2017-Apr-09 18:25N 22°35' E 120°18'0 0.0
2017-Apr-09 16:58N 22°35' E 120°18'0 0.0
2017-Apr-09 16:28N 22°35' E 120°18'0 0.1
2017-Apr-09 16:00N 22°35' E 120°18'0 0.0
2017-Apr-09 15:27N 22°35' E 120°18'0 0.0
2017-Apr-09 14:56N 22°35' E 120°18'0 0.1
2017-Apr-09 13:53N 22°35' E 120°18'0 0.1
2017-Apr-09 13:26N 22°35' E 120°18'0 0.1
2017-Apr-09 13:00N 22°35' E 120°18'0 0.0
2017-Apr-09 12:28N 22°35' E 120°18'0 0.0
2017-Apr-09 12:00N 22°35' E 120°18'1 2.7
2017-Apr-09 11:30N 22°33' E 120°19'3 7.0
2017-Apr-09 11:00N 22°32' E 120°16'5 9.5
2017-Apr-09 10:30N 22°31' E 120°11'815.9
2017-Apr-09 10:00N 22°29' E 120°02'815.8
2017-Apr-09 09:30N 22°27' E 119°54'1017.4
2017-Apr-09 08:58N 22°25' E 119°44'919.7
2017-Apr-09 08:29N 22°21' E 119°35'1020.2
2017-Apr-09 08:00N 22°14' E 119°28'  
Track history (hours):
 
Tides and Currents Weather Stations Pressure Air Temp Water Temp Dewpoint Dewpoint Depression Visibility Wind Speed Wind Dir Waves Ship Positions

Corinthiakos

Last reported at 2017-Apr-17 01:02 UTC. Time now 2017-Apr-28 02:35 UTC.
Position N 01°21' E 103°18'.
Warning: this ship's position is 11 days out of date.

Length 262 m; draft 12.5 m.

Type: Cargo ship. MMSI: 636014516.

Date/timePositionNaut miles runAvg speedWind from/ knotsBaromVisibWave heightAir tempDewpointWater temp
2017-Apr-17 01:02N 01°21' E 103°18'318.6
2017-Apr-17 00:51N 01°18' E 103°21'618.3
2017-Apr-17 00:30N 01°14' E 103°25'918.3
2017-Apr-17 00:00N 01°12' E 103°34'816.4
2017-Apr-16 23:31N 01°09' E 103°42'611.9
2017-Apr-16 23:00N 01°11' E 103°48'510.4
2017-Apr-16 22:30N 01°13' E 103°53'3 6.5
2017-Apr-16 22:00N 01°15' E 103°51'0 0.8
2017-Apr-16 21:25N 01°16' E 103°51'0 0.0
2017-Apr-16 20:55N 01°16' E 103°51'0 0.0
2017-Apr-16 20:30N 01°16' E 103°51'0 0.0
2017-Apr-16 19:58N 01°16' E 103°51'0 0.0
2017-Apr-16 19:25N 01°16' E 103°51'0 0.0
2017-Apr-16 18:55N 01°16' E 103°51'0 0.0
2017-Apr-16 18:28N 01°16' E 103°51'0 0.0
2017-Apr-16 18:01N 01°16' E 103°51'0 0.0
2017-Apr-16 17:25N 01°16' E 103°51'0 0.0
2017-Apr-16 17:01N 01°16' E 103°51'0 0.0
2017-Apr-16 16:31N 01°16' E 103°51'0 0.0
2017-Apr-16 15:57N 01°16' E 103°51'0 0.0
2017-Apr-16 15:15N 01°16' E 103°51'0 0.0
2017-Apr-16 14:57N 01°16' E 103°51'0 0.0
2017-Apr-16 13:57N 01°16' E 103°51'0 0.0
2017-Apr-16 13:30N 01°16' E 103°51'0 0.0
2017-Apr-16 12:57N 01°16' E 103°51'0 0.0
2017-Apr-16 12:30N 01°16' E 103°51'0 0.0
2017-Apr-16 11:57N 01°16' E 103°51'0 0.0
2017-Apr-16 11:30N 01°16' E 103°51'0 0.1
2017-Apr-16 11:00N 01°16' E 103°51'1 2.9
2017-Apr-16 10:30N 01°15' E 103°52'3 5.6
2017-Apr-16 10:00N 01°14' E 103°54'713.1
2017-Apr-16 09:30N 01°16' E 104°01'915.1
2017-Apr-16 08:56N 01°17' E 104°09'  
2017-Apr-11 23:23N 22°18' E 114°05'1 3.0
2017-Apr-11 23:01N 22°19' E 114°06'2 1.9
2017-Apr-11 22:06N 22°20' E 114°08'0 0.0
2017-Apr-11 14:07N 22°20' E 114°08'31313.2
2017-Apr-10 14:23N 22°29' E 119°46'1416.1
2017-Apr-10 13:30N 22°31' E 120°01'816.6
2017-Apr-10 13:00N 22°32' E 120°10'714.6
2017-Apr-10 12:30N 22°33' E 120°18'1 2.8
2017-Apr-10 12:00N 22°34' E 120°19'1 1.4
2017-Apr-10 11:26N 22°35' E 120°18'0 0.0
2017-Apr-10 10:56N 22°35' E 120°18'0 0.0
2017-Apr-10 10:28N 22°35' E 120°18'0 0.0
2017-Apr-10 09:59N 22°35' E 120°18'0 0.0
2017-Apr-10 09:28N 22°35' E 120°18'0 0.0
2017-Apr-10 08:55N 22°35' E 120°18'0 0.0
2017-Apr-10 08:27N 22°35' E 120°18'0 0.0
2017-Apr-10 07:59N 22°35' E 120°18'0 0.0
2017-Apr-10 07:30N 22°35' E 120°18'0 0.1
2017-Apr-10 07:01N 22°35' E 120°18'0 0.1
2017-Apr-10 06:29N 22°35' E 120°18'0 0.0
2017-Apr-10 05:59N 22°35' E 120°18'0 0.0
2017-Apr-10 05:28N 22°35' E 120°18'0 0.0
2017-Apr-10 04:58N 22°35' E 120°18'0 0.0
2017-Apr-10 04:28N 22°35' E 120°18'0 0.0
2017-Apr-10 03:58N 22°35' E 120°18'0 0.0
2017-Apr-10 03:30N 22°35' E 120°18'0 0.0
2017-Apr-10 02:59N 22°35' E 120°18'0 0.0
2017-Apr-10 02:22N 22°35' E 120°18'0 0.0
2017-Apr-10 02:00N 22°35' E 120°18'0 0.0
2017-Apr-10 01:31N 22°35' E 120°18'0 0.0
2017-Apr-10 00:55N 22°35' E 120°18'0 0.0
2017-Apr-10 00:26N 22°35' E 120°18'0 0.0
2017-Apr-09 22:06N 22°35' E 120°18'0 0.0
2017-Apr-09 21:56N 22°35' E 120°18'0 0.0
2017-Apr-09 19:51N 22°35' E 120°18'0 0.0
2017-Apr-09 18:47N 22°35' E 120°18'0 0.1
2017-Apr-09 18:25N 22°35' E 120°18'0 0.0
2017-Apr-09 16:58N 22°35' E 120°18'0 0.0
2017-Apr-09 16:28N 22°35' E 120°18'0 0.1
2017-Apr-09 16:00N 22°35' E 120°18'0 0.0
2017-Apr-09 15:27N 22°35' E 120°18'0 0.0
2017-Apr-09 14:56N 22°35' E 120°18'0 0.1
2017-Apr-09 13:53N 22°35' E 120°18'0 0.1
2017-Apr-09 13:26N 22°35' E 120°18'0 0.1
2017-Apr-09 13:00N 22°35' E 120°18'0 0.0
2017-Apr-09 12:28N 22°35' E 120°18'0 0.0
2017-Apr-09 12:00N 22°35' E 120°18'1 2.7
2017-Apr-09 11:30N 22°33' E 120°19'3 7.0
2017-Apr-09 11:00N 22°32' E 120°16'5 9.5
2017-Apr-09 10:30N 22°31' E 120°11'815.9
2017-Apr-09 10:00N 22°29' E 120°02'815.8
2017-Apr-09 09:30N 22°27' E 119°54'1017.4
2017-Apr-09 08:58N 22°25' E 119°44'919.7
2017-Apr-09 08:29N 22°21' E 119°35'1020.2
2017-Apr-09 08:00N 22°14' E 119°28'  

Dump ship's entire track history